createdAt,value
2019-01-24T00:03:51.167Z,47.50
2019-01-24T00:06:14.014Z,46.43
2019-01-24T00:08:35.061Z,48.03
2019-01-24T00:10:58.818Z,49.17
2019-01-24T00:13:15.207Z,46.17
2019-01-24T00:15:39.866Z,46.17
2019-01-24T00:21:09.708Z,47.43
2019-01-24T00:25:48.855Z,48.90
2019-01-24T00:28:05.277Z,49.70
2019-01-24T00:30:27.865Z,50.03
2019-01-24T00:32:46.544Z,47.13
2019-01-24T00:35:03.070Z,52.20
2019-01-24T00:37:21.546Z,47.80
2019-01-24T00:39:38.677Z,48.70
2019-01-24T00:41:58.377Z,49.47
2019-01-24T00:44:38.270Z,49.87
2019-01-24T00:46:49.106Z,48.80
2019-01-24T00:51:44.485Z,49.67
2019-01-24T00:53:57.197Z,51.10
2019-01-24T00:59:18.498Z,47.40
2019-01-24T01:01:34.759Z,48.57
2019-01-24T01:03:51.438Z,49.83
2019-01-24T01:06:09.018Z,50.30
2019-01-24T01:08:24.914Z,50.20
2019-01-24T01:10:41.185Z,49.97
2019-01-24T01:12:57.474Z,50.10
2019-01-24T01:15:13.914Z,51.20
2019-01-24T01:17:28.210Z,49.37
2019-01-24T01:19:44.864Z,50.03
2019-01-24T01:21:49.665Z,49.57
2019-01-24T01:24:13.990Z,48.27
2019-01-24T01:26:30.772Z,48.77
2019-01-24T01:28:47.254Z,49.77
2019-01-24T01:31:03.550Z,48.53
2019-01-24T01:33:20.302Z,50.10
2019-01-24T01:35:36.882Z,50.57
2019-01-24T01:37:53.326Z,47.97
2019-01-24T01:40:09.993Z,47.63
2019-01-24T01:42:26.726Z,49.07
2019-01-24T01:44:43.314Z,48.50
2019-01-24T01:47:00.006Z,49.80
2019-01-24T01:49:16.261Z,48.63
2019-01-24T01:51:35.201Z,48.40
2019-01-24T01:53:51.932Z,47.67
2019-01-24T01:56:08.361Z,47.73
2019-01-24T01:58:24.565Z,47.50
2019-01-24T02:00:40.782Z,47.67
2019-01-24T02:02:57.081Z,49.77
2019-01-24T02:05:01.934Z,49.40
2019-01-24T02:07:06.711Z,50.23
2019-01-24T02:09:53.093Z,50.43
2019-01-24T02:14:56.270Z,47.77
2019-01-24T02:17:15.280Z,48.10
2019-01-24T02:19:31.688Z,48.80
2019-01-24T02:21:56.010Z,49.17
2019-01-24T02:25:17.667Z,49.63
2019-01-24T02:26:47.518Z,48.17
2019-01-24T02:29:13.134Z,51.50
2019-01-24T02:31:38.402Z,50.97
2019-01-24T02:33:54.897Z,51.13
2019-01-24T02:36:04.533Z,54.03
2019-01-24T02:38:28.342Z,54.00
2019-01-24T02:40:56.243Z,49.37
2019-01-24T02:43:12.638Z,51.70
2019-01-24T02:45:29.773Z,54.33
2019-01-24T02:48:03.343Z,51.93
2019-01-24T02:56:14.066Z,52.57
2019-01-24T03:00:59.925Z,53.77
2019-01-24T03:03:21.961Z,53.33
2019-01-24T03:05:38.252Z,54.07
2019-01-24T03:07:56.989Z,55.00
2019-01-24T03:10:16.954Z,52.17
2019-01-24T03:12:35.026Z,52.50
2019-01-24T03:17:38.746Z,52.20
2019-01-24T03:19:55.062Z,53.57
2019-01-24T03:22:12.218Z,50.50
2019-01-24T03:24:33.437Z,53.97
2019-01-24T03:27:14.728Z,54.03
2019-01-24T03:29:31.667Z,55.20
2019-01-24T03:31:50.490Z,52.80
2019-01-24T03:34:06.741Z,54.23
2019-01-24T03:36:25.756Z,51.17
2019-01-24T03:38:42.091Z,54.23
2019-01-24T03:40:59.539Z,52.03
2019-01-24T03:43:15.477Z,53.43
2019-01-24T03:45:37.795Z,55.67
2019-01-24T03:47:55.120Z,52.80
2019-01-24T03:50:17.048Z,52.33
2019-01-24T03:55:02.563Z,53.00
2019-01-24T03:57:22.365Z,53.80
2019-01-24T04:02:19.152Z,55.50
2019-01-24T04:07:16.844Z,54.67
2019-01-24T04:09:33.246Z,55.80
2019-01-24T04:11:49.672Z,54.87
2019-01-24T04:14:07.741Z,56.37
2019-01-24T04:16:24.008Z,54.73
2019-01-24T04:18:28.863Z,54.17
2019-01-24T04:20:52.750Z,54.33
2019-01-24T04:23:08.811Z,54.03
2019-01-24T04:25:25.588Z,52.63
2019-01-24T04:27:30.495Z,52.43
2019-01-24T04:29:54.348Z,54.67
2019-01-24T04:32:18.274Z,52.73
2019-01-24T04:34:42.146Z,52.73
2019-01-24T04:37:01.879Z,50.87
2019-01-24T04:39:18.275Z,53.60
2019-01-24T04:41:34.446Z,54.73
2019-01-24T04:43:50.525Z,53.23
2019-01-24T04:46:06.979Z,51.33
2019-01-24T04:48:23.697Z,54.97
2019-01-24T04:50:40.112Z,53.50
2019-01-24T04:52:56.906Z,53.93
2019-01-24T04:55:13.414Z,55.17
2019-01-24T04:57:29.582Z,52.57
2019-01-24T04:59:46.149Z,53.73
2019-01-24T05:02:02.830Z,53.10
2019-01-24T05:04:19.306Z,55.67
2019-01-24T05:06:36.024Z,54.47
2019-01-24T05:08:52.650Z,51.27
2019-01-24T05:11:09.382Z,54.13
2019-01-24T05:13:26.083Z,51.67
2019-01-24T05:15:42.690Z,51.70
2019-01-24T05:17:59.467Z,54.13
2019-01-24T05:20:23.265Z,53.80
2019-01-24T05:22:47.114Z,58.47
2019-01-24T05:25:12.936Z,58.27
2019-01-24T05:27:39.531Z,58.97
2019-01-24T05:29:56.130Z,58.60
2019-01-24T05:32:00.927Z,58.87
2019-01-24T05:34:25.108Z,59.33
2019-01-24T05:36:48.965Z,58.23
2019-01-24T05:38:53.899Z,56.93
2019-01-24T05:41:20.358Z,55.40
2019-01-24T05:43:36.701Z,56.53
2019-01-24T05:45:52.890Z,55.60
2019-01-24T05:48:11.008Z,56.13
2019-01-24T05:50:27.294Z,57.93
2019-01-24T05:52:52.475Z,57.83
2019-01-24T05:55:35.417Z,52.37
2019-01-24T05:57:51.483Z,52.47
2019-01-24T06:00:07.749Z,57.03
2019-01-24T06:02:24.468Z,56.87
2019-01-24T06:04:41.063Z,57.03
2019-01-24T06:09:09.757Z,52.43
2019-01-24T06:11:28.722Z,54.80
2019-01-24T06:13:45.176Z,50.67
2019-01-24T06:16:01.373Z,50.50
2019-01-24T06:18:06.325Z,54.33
2019-01-24T06:20:49.369Z,54.40
2019-01-24T06:23:05.427Z,52.23
2019-01-24T06:25:10.364Z,54.53
2019-01-24T06:27:54.535Z,55.87
2019-01-24T06:32:34.449Z,53.83
2019-01-24T06:37:25.325Z,55.33
2019-01-24T06:39:30.297Z,53.23
2019-01-24T06:41:54.171Z,56.17
2019-01-24T06:44:17.959Z,56.57
2019-01-24T06:46:41.830Z,52.90
2019-01-24T06:48:58.407Z,53.37
2019-01-24T06:51:03.330Z,51.87
2019-01-24T06:56:03.439Z,56.30
2019-01-24T06:58:21.075Z,55.23
2019-01-24T07:00:27.476Z,53.27
2019-01-24T07:02:51.332Z,56.07
2019-01-24T07:04:56.169Z,54.80
2019-01-24T07:09:57.842Z,55.67
2019-01-24T07:12:14.302Z,54.97
2019-01-24T07:14:33.630Z,54.00
2019-01-24T07:16:56.185Z,54.67
2019-01-24T07:19:17.029Z,56.40
2019-01-24T07:21:33.633Z,51.47
2019-01-24T07:23:49.898Z,54.90
2019-01-24T07:26:06.460Z,56.80
2019-01-24T07:28:22.837Z,54.43
2019-01-24T07:30:43.457Z,52.60
2019-01-24T07:32:59.780Z,54.77
2019-01-24T07:35:29.210Z,53.20
2019-01-24T07:38:06.269Z,54.33
2019-01-24T07:40:11.153Z,55.97
2019-01-24T07:42:27.566Z,58.50
2019-01-24T07:44:46.062Z,55.67
2019-01-24T07:47:02.942Z,55.13
2019-01-24T07:49:24.502Z,54.40
2019-01-24T07:51:42.198Z,56.93
2019-01-24T07:54:00.313Z,54.17
2019-01-24T07:56:18.916Z,55.03
2019-01-24T07:58:35.716Z,55.40
2019-01-24T08:00:41.517Z,55.67
2019-01-24T08:05:42.731Z,51.73
2019-01-24T08:07:59.141Z,55.13
2019-01-24T08:10:15.414Z,56.13
2019-01-24T08:12:37.706Z,55.07
2019-01-24T08:14:54.834Z,54.17
2019-01-24T08:17:11.315Z,54.80
2019-01-24T08:19:36.923Z,55.77
2019-01-24T08:22:01.227Z,52.97
2019-01-24T08:24:18.534Z,52.80
2019-01-24T08:26:38.821Z,51.70
2019-01-24T08:28:55.267Z,54.40
2019-01-24T08:31:13.762Z,56.03
2019-01-24T08:33:39.264Z,54.73
2019-01-24T08:35:55.830Z,54.47
2019-01-24T08:38:12.232Z,55.03
2019-01-24T08:40:29.073Z,53.27
2019-01-24T08:42:35.534Z,53.93
2019-01-24T08:45:07.218Z,53.10
2019-01-24T08:47:24.147Z,50.63
2019-01-24T08:49:40.777Z,52.57
2019-01-24T08:51:57.656Z,51.17
2019-01-24T08:54:14.224Z,54.70
2019-01-24T08:56:36.644Z,51.23
2019-01-24T08:58:53.100Z,51.80
2019-01-24T09:01:10.505Z,52.27
2019-01-24T09:05:53.169Z,51.40
2019-01-24T09:10:57.367Z,51.70
2019-01-24T09:13:40.070Z,50.40
2019-01-24T09:16:10.305Z,49.43
2019-01-24T09:18:18.449Z,49.50
2019-01-24T09:23:11.136Z,47.73
2019-01-24T09:25:27.463Z,52.57
2019-01-24T09:27:33.517Z,52.20
2019-01-24T09:32:39.475Z,53.37
2019-01-24T09:34:44.809Z,53.73
2019-01-24T09:37:08.897Z,55.70
2019-01-24T09:39:14.126Z,53.87
2019-01-24T09:41:38.438Z,54.17
2019-01-24T09:43:48.537Z,53.33
2019-01-24T09:46:15.625Z,55.23
2019-01-24T09:48:40.093Z,54.67
2019-01-24T09:50:51.128Z,53.77
2019-01-24T09:53:15.283Z,54.13
2019-01-24T09:56:05.067Z,55.53
2019-01-24T09:58:21.597Z,53.23
2019-01-24T10:00:40.522Z,53.23
2019-01-24T10:03:00.106Z,52.97
2019-01-24T10:05:07.103Z,54.10
2019-01-24T10:07:18.326Z,53.17
2019-01-24T10:09:43.258Z,54.83
2019-01-24T10:12:04.269Z,54.10
2019-01-24T10:14:28.707Z,54.83
2019-01-24T10:16:55.586Z,52.93
2019-01-24T10:19:30.023Z,54.67
2019-01-24T10:21:37.037Z,55.80
2019-01-24T10:23:53.314Z,56.07
2019-01-24T10:26:18.938Z,56.60
2019-01-24T10:28:38.318Z,53.50
2019-01-24T10:33:42.310Z,55.80
2019-01-24T10:35:50.347Z,56.97
2019-01-24T10:38:35.643Z,59.83
2019-01-24T10:40:51.924Z,55.43
2019-01-24T10:42:57.965Z,57.57
2019-01-24T10:45:42.333Z,56.70
2019-01-24T10:50:38.438Z,56.67
2019-01-24T10:52:59.809Z,55.13
2019-01-24T10:55:13.500Z,57.83
2019-01-24T10:57:14.547Z,58.10
2019-01-24T10:59:55.871Z,61.03
2019-01-24T11:04:22.808Z,51.57
2019-01-24T11:06:50.155Z,49.37
2019-01-24T11:09:13.063Z,56.90
2019-01-24T11:11:30.429Z,58.10
2019-01-24T11:16:20.915Z,56.43
2019-01-24T11:18:45.529Z,59.20
2019-01-24T11:21:05.061Z,59.20
2019-01-24T11:25:52.764Z,58.87
2019-01-24T11:28:13.963Z,57.17
2019-01-24T11:30:34.487Z,58.77
2019-01-24T11:32:40.060Z,59.07
2019-01-24T11:34:48.295Z,59.43
2019-01-24T11:37:32.682Z,56.90
2019-01-24T11:39:39.768Z,57.37
2019-01-24T11:42:18.051Z,60.77
2019-01-24T11:44:42.373Z,57.60
2019-01-24T11:46:58.766Z,55.70
2019-01-24T11:49:22.903Z,60.03
2019-01-24T11:51:39.878Z,57.07
2019-01-24T11:53:34.865Z,57.63
2019-01-24T11:56:01.831Z,57.90
2019-01-24T11:58:07.489Z,59.73
2019-01-24T12:02:53.574Z,59.63
2019-01-24T12:05:00.872Z,57.27
2019-01-24T12:07:07.705Z,61.37
2019-01-24T12:09:14.775Z,58.90
2019-01-24T12:11:20.257Z,59.23
2019-01-24T12:13:25.497Z,61.50
2019-01-24T12:15:30.614Z,56.53
2019-01-24T12:17:41.611Z,61.17
2019-01-24T12:19:49.756Z,60.77
2019-01-24T12:21:56.501Z,61.07
2019-01-24T12:24:08.058Z,61.57
2019-01-24T12:26:15.400Z,59.00
2019-01-24T12:28:24.923Z,59.77
2019-01-24T12:33:03.111Z,62.60
2019-01-24T12:35:10.697Z,57.87
2019-01-24T12:37:22.184Z,59.33
2019-01-24T12:39:27.422Z,60.10
2019-01-24T12:41:37.389Z,61.53
2019-01-24T12:43:50.101Z,57.00
2019-01-24T12:45:58.106Z,59.40
2019-01-24T12:48:06.775Z,58.07
2019-01-24T12:50:16.067Z,59.13
2019-01-24T12:52:21.634Z,55.83
2019-01-24T12:54:27.212Z,58.73
2019-01-24T12:56:32.340Z,57.63
2019-01-24T12:58:37.395Z,62.67
2019-01-24T13:01:04.243Z,58.17
2019-01-24T13:03:11.265Z,56.90
2019-01-24T13:05:19.299Z,59.33
2019-01-24T13:07:27.430Z,60.20
2019-01-24T13:09:34.003Z,60.67
2019-01-24T13:11:51.714Z,58.73
2019-01-24T13:14:06.931Z,59.70
2019-01-24T13:16:11.620Z,56.90
2019-01-24T13:18:18.954Z,55.83
2019-01-24T13:20:33.418Z,57.77
2019-01-24T13:22:40.353Z,59.10
2019-01-24T13:24:47.568Z,59.00
2019-01-24T13:26:52.607Z,55.43
2019-01-24T13:28:57.361Z,59.63
2019-01-24T13:31:04.805Z,63.07
2019-01-24T13:33:09.590Z,62.40
2019-01-24T13:35:17.344Z,58.60
2019-01-24T13:37:41.965Z,59.47
2019-01-24T13:39:52.815Z,62.53
2019-01-24T13:41:59.695Z,61.03
2019-01-24T13:44:14.611Z,61.73
2019-01-24T13:46:29.884Z,63.57
2019-01-24T13:48:43.223Z,63.40
2019-01-24T13:50:56.480Z,62.20
2019-01-24T13:53:01.322Z,59.83
2019-01-24T13:55:08.461Z,63.40
2019-01-24T13:57:15.222Z,63.63
2019-01-24T13:59:26.134Z,62.77
2019-01-24T14:01:31.088Z,63.33
2019-01-24T14:04:13.325Z,60.57
2019-01-24T14:06:23.056Z,62.57
2019-01-24T14:08:37.377Z,61.33
2019-01-24T14:10:44.312Z,62.10
2019-01-24T14:12:49.430Z,63.27
2019-01-24T14:14:54.337Z,61.23
2019-01-24T14:17:02.045Z,63.47
2019-01-24T14:19:13.345Z,58.30
2019-01-24T14:21:21.398Z,60.83
2019-01-24T14:23:28.668Z,61.80
2019-01-24T14:25:33.580Z,62.37
2019-01-24T14:27:38.673Z,58.47
2019-01-24T14:29:45.823Z,59.20
2019-01-24T14:31:53.653Z,62.33
2019-01-24T14:33:58.615Z,62.87
2019-01-24T14:36:10.208Z,57.60
2019-01-24T14:38:21.285Z,58.17
2019-01-24T14:40:29.751Z,58.17
2019-01-24T14:42:44.140Z,57.63
2019-01-24T14:44:49.130Z,55.30
2019-01-24T14:46:54.634Z,53.57
2019-01-24T14:48:59.621Z,58.13
2019-01-24T14:51:07.620Z,57.87
2019-01-24T14:53:14.943Z,60.20
2019-01-24T14:55:20.292Z,59.03
2019-01-24T14:57:30.274Z,56.47
2019-01-24T14:59:35.354Z,55.60
2019-01-24T15:01:42.946Z,40.77
2019-01-24T15:04:06.205Z,43.30
2019-01-24T15:06:17.017Z,46.90
2019-01-24T15:08:29.633Z,42.13
2019-01-24T15:10:34.663Z,35.57
2019-01-24T15:12:44.152Z,33.87
2019-01-24T15:15:17.968Z,36.57
2019-01-24T15:17:22.880Z,37.30
2019-01-24T15:19:32.754Z,47.10
2019-01-24T15:21:44.228Z,49.00
2019-01-24T15:23:56.226Z,47.70
2019-01-24T15:26:09.231Z,52.07
2019-01-24T15:28:16.506Z,50.90
2019-01-24T15:30:29.828Z,48.23
2019-01-24T15:32:35.000Z,44.50
2019-01-24T15:34:45.466Z,49.30
2019-01-24T15:37:01.294Z,50.27
2019-01-24T15:39:09.203Z,56.40
2019-01-24T15:41:14.218Z,54.33
2019-01-24T15:43:19.225Z,54.97
2019-01-24T15:45:34.208Z,52.73
2019-01-24T15:47:43.750Z,57.03
2019-01-24T15:49:53.060Z,59.60
2019-01-24T15:51:57.610Z,61.20
2019-01-24T15:54:05.737Z,59.43
2019-01-24T15:56:10.529Z,57.47
2019-01-24T15:58:16.943Z,54.77
2019-01-24T16:00:32.672Z,59.43
2019-01-24T16:02:46.083Z,54.93
2019-01-24T16:04:55.314Z,53.93
2019-01-24T16:07:05.442Z,57.43
2019-01-24T16:09:12.070Z,57.33
2019-01-24T16:11:17.781Z,62.63
2019-01-24T16:13:26.198Z,58.93
2019-01-24T16:15:58.635Z,59.43
2019-01-24T16:18:23.095Z,58.37
2019-01-24T16:20:29.751Z,56.40
2019-01-24T16:22:34.959Z,58.80
2019-01-24T16:24:45.665Z,58.73
2019-01-24T16:26:54.479Z,58.90
2019-01-24T16:29:03.328Z,58.77
2019-01-24T16:33:59.592Z,55.07
2019-01-24T16:36:05.761Z,59.37
2019-01-24T16:38:15.564Z,58.70
2019-01-24T16:40:21.830Z,57.73
2019-01-24T16:42:36.642Z,61.47
2019-01-24T16:44:41.804Z,60.20
2019-01-24T16:46:50.629Z,56.60
2019-01-24T16:48:57.461Z,56.93
2019-01-24T16:51:05.379Z,59.33
2019-01-24T16:53:15.200Z,57.33
2019-01-24T16:55:30.791Z,56.93
2019-01-24T16:57:36.704Z,56.50
2019-01-24T16:59:41.834Z,54.57
2019-01-24T17:01:48.854Z,57.27
2019-01-24T17:03:55.834Z,54.23
2019-01-24T17:06:10.023Z,53.03
2019-01-24T17:08:17.018Z,51.47
2019-01-24T17:10:23.755Z,55.17
2019-01-24T17:12:31.961Z,56.60
2019-01-24T17:14:37.410Z,56.40
2019-01-24T17:16:46.330Z,58.80
2019-01-24T17:18:53.190Z,63.37
2019-01-24T17:21:00.574Z,63.60
2019-01-24T17:23:08.410Z,61.50
2019-01-24T17:25:13.363Z,62.00
2019-01-24T17:27:21.445Z,64.17
2019-01-24T17:29:31.274Z,64.03
2019-01-24T17:31:41.413Z,62.50
2019-01-24T17:34:02.219Z,62.63
2019-01-24T17:36:07.357Z,62.47
2019-01-24T17:38:23.711Z,60.57
2019-01-24T17:40:27.886Z,61.53
2019-01-24T17:42:32.685Z,61.90
2019-01-24T17:44:41.903Z,59.90
2019-01-24T17:46:46.692Z,62.97
2019-01-24T17:48:52.367Z,62.97
2019-01-24T17:50:58.804Z,62.43
2019-01-24T17:53:07.224Z,58.77
2019-01-24T17:55:24.172Z,57.03
2019-01-24T17:57:32.471Z,48.67
2019-01-24T17:59:42.803Z,47.80
2019-01-24T18:01:48.722Z,46.23
2019-01-24T18:03:54.620Z,47.47
2019-01-24T18:06:00.560Z,48.80
2019-01-24T18:08:05.377Z,50.27
2019-01-24T18:10:18.258Z,54.37
2019-01-24T18:12:27.207Z,55.17
2019-01-24T18:14:35.334Z,63.93
2019-01-24T18:16:40.591Z,60.37
2019-01-24T18:18:45.379Z,62.83
2019-01-24T18:20:56.012Z,60.73
2019-01-24T18:23:07.656Z,62.87
2019-01-24T18:25:12.764Z,66.83
2019-01-24T18:27:22.122Z,65.33
2019-01-24T18:29:26.906Z,66.67
2019-01-24T18:31:32.578Z,66.37
2019-01-24T18:33:45.231Z,68.70
2019-01-24T18:36:01.846Z,72.17
2019-01-24T18:38:07.302Z,70.77
2019-01-24T18:40:13.563Z,71.47
2019-01-24T18:42:20.004Z,74.50
2019-01-24T18:44:24.754Z,70.73
2019-01-24T18:46:29.530Z,69.83
2019-01-24T18:48:35.271Z,70.07
2019-01-24T18:50:52.292Z,71.40
2019-01-24T18:53:00.294Z,73.57
2019-01-24T18:55:06.701Z,75.20
2019-01-24T18:57:12.494Z,72.47
2019-01-24T18:59:23.019Z,72.53
2019-01-24T19:03:38.153Z,71.07
2019-01-24T19:05:50.821Z,74.97
2019-01-24T19:08:08.076Z,74.03
2019-01-24T19:10:22.021Z,73.30
2019-01-24T19:12:31.093Z,73.13
2019-01-24T19:14:44.103Z,77.47
2019-01-24T19:16:48.876Z,81.13
2019-01-24T19:18:59.772Z,74.10
2019-01-24T19:21:06.720Z,75.47
2019-01-24T19:23:13.633Z,74.80
2019-01-24T19:25:23.106Z,73.90
2019-01-24T19:27:36.394Z,71.70
2019-01-24T19:29:48.426Z,67.90
2019-01-24T19:32:07.844Z,69.43
2019-01-24T19:34:17.161Z,67.77
2019-01-24T19:36:26.386Z,73.73
2019-01-24T19:38:34.584Z,71.03
2019-01-24T19:40:43.707Z,70.43
2019-01-24T19:42:53.672Z,70.10
2019-01-24T19:45:02.237Z,72.50
2019-01-24T19:47:14.929Z,65.30
2019-01-24T19:49:27.689Z,62.67
2019-01-24T19:51:34.091Z,62.70
2019-01-24T19:53:51.361Z,57.73
2019-01-24T19:55:56.691Z,54.97
2019-01-24T19:58:20.131Z,56.93
2019-01-24T20:00:56.672Z,52.73
2019-01-24T20:03:01.641Z,48.40
2019-01-24T20:05:13.827Z,47.23
2019-01-24T20:07:27.908Z,47.17
2019-01-24T20:09:30.080Z,42.30
2019-01-24T20:11:41.686Z,41.90
2019-01-24T20:14:20.385Z,40.87
2019-01-24T20:16:51.686Z,39.47
2019-01-24T20:19:20.592Z,40.53
2019-01-24T20:22:00.038Z,36.83
2019-01-24T20:24:11.174Z,37.77
2019-01-24T20:26:25.743Z,38.73
2019-01-24T20:28:40.541Z,38.57
2019-01-24T20:30:55.020Z,37.73
2019-01-24T20:33:07.979Z,35.70
2019-01-24T20:35:38.970Z,36.80
2019-01-24T20:37:49.485Z,36.57
2019-01-24T20:39:59.110Z,36.50
2019-01-24T20:42:14.182Z,37.37
2019-01-24T20:44:22.674Z,35.87
2019-01-24T20:46:30.021Z,37.57
2019-01-24T20:48:38.289Z,36.30
2019-01-24T20:50:55.075Z,37.63
2019-01-24T20:53:00.082Z,37.97
2019-01-24T20:55:05.465Z,37.00
2019-01-24T20:57:10.634Z,37.87
2019-01-24T20:59:16.629Z,36.23
2019-01-24T21:01:24.312Z,36.77
2019-01-24T21:03:29.190Z,36.83
2019-01-24T21:05:48.119Z,37.17
2019-01-24T21:07:58.076Z,38.33
2019-01-24T21:10:06.840Z,37.93
2019-01-24T21:12:11.592Z,36.27
2019-01-24T21:14:17.710Z,38.20
2019-01-24T21:16:44.658Z,36.40
2019-01-24T21:18:57.486Z,38.40
2019-01-24T21:21:09.260Z,37.10
2019-01-24T21:23:16.751Z,38.03
2019-01-24T21:25:25.214Z,37.87
2019-01-24T21:27:35.100Z,36.17
2019-01-24T21:29:42.403Z,37.17
2019-01-24T21:31:49.637Z,37.30
2019-01-24T21:34:04.658Z,37.50
2019-01-24T21:36:16.130Z,35.47
2019-01-24T21:38:27.155Z,34.30
2019-01-24T21:40:32.722Z,35.23
2019-01-24T21:42:39.946Z,35.57
2019-01-24T21:44:53.477Z,35.77
2019-01-24T21:47:01.425Z,35.37
2019-01-24T21:49:06.345Z,36.83
2019-01-24T21:51:11.505Z,34.37
2019-01-24T21:53:17.682Z,34.17
2019-01-24T21:55:30.774Z,35.70
2019-01-24T21:57:35.534Z,33.97
2019-01-24T21:59:45.846Z,35.07
2019-01-24T22:01:50.727Z,34.53
2019-01-24T22:03:55.502Z,37.40
2019-01-24T22:06:03.531Z,36.97
2019-01-24T22:08:08.359Z,36.00
2019-01-24T22:10:17.462Z,36.10
2019-01-24T22:12:22.343Z,36.27
2019-01-24T22:14:35.682Z,32.70
2019-01-24T22:16:48.247Z,34.97
2019-01-24T22:19:02.245Z,33.80
2019-01-24T22:21:11.621Z,35.67
2019-01-24T22:23:18.713Z,36.90
2019-01-24T22:25:33.082Z,35.57
2019-01-24T22:27:42.326Z,33.53
2019-01-24T22:29:49.514Z,37.43
2019-01-24T22:31:58.825Z,35.63
2019-01-24T22:34:05.645Z,38.20
2019-01-24T22:36:11.621Z,38.50
2019-01-24T22:38:19.592Z,37.60
2019-01-24T22:40:58.316Z,37.07
2019-01-24T22:43:05.317Z,37.47
2019-01-24T22:45:25.406Z,36.77
2019-01-24T22:47:40.362Z,36.70
2019-01-24T22:49:45.205Z,37.27
2019-01-24T22:51:55.456Z,39.73
2019-01-24T22:54:03.164Z,38.20
2019-01-24T22:56:15.868Z,36.73
2019-01-24T22:58:31.653Z,36.17
2019-01-24T23:01:29.525Z,37.97
2019-01-24T23:04:15.127Z,36.33
2019-01-24T23:06:32.773Z,39.33
2019-01-24T23:08:45.158Z,37.90
2019-01-24T23:10:55.921Z,39.03
2019-01-24T23:13:14.242Z,39.20
2019-01-24T23:15:28.799Z,37.30
2019-01-24T23:17:40.660Z,38.67
2019-01-24T23:19:59.560Z,40.70
2019-01-24T23:22:30.331Z,39.80
2019-01-24T23:24:39.802Z,39.73
2019-01-24T23:29:43.285Z,39.37
2019-01-24T23:32:05.234Z,39.43
2019-01-24T23:34:14.054Z,41.20
2019-01-24T23:36:29.713Z,39.47
2019-01-24T23:38:42.720Z,40.40
2019-01-24T23:40:52.502Z,42.40
2019-01-24T23:43:04.158Z,41.43
2019-01-24T23:45:15.418Z,43.47
2019-01-24T23:47:40.470Z,41.80
2019-01-24T23:49:44.038Z,41.63
2019-01-24T23:52:05.374Z,41.40
2019-01-24T23:54:15.406Z,42.13
2019-01-24T23:56:28.554Z,40.07
2019-01-24T23:58:39.021Z,44.00
